createdAt,value
2023-09-29T00:02:13.669Z,14.05
2023-09-29T00:04:45.713Z,14.04
2023-09-29T00:07:18.254Z,14.04
2023-09-29T00:09:47.858Z,14.04
2023-09-29T00:12:16.734Z,14.05
2023-09-29T00:14:45.765Z,14.04
2023-09-29T00:17:15.493Z,14.06
2023-09-29T00:19:47.034Z,14.04
2023-09-29T00:22:18.137Z,13.99
2023-09-29T00:24:51.902Z,13.95
2023-09-29T00:27:20.529Z,13.93
2023-09-29T00:29:49.801Z,13.93
2023-09-29T00:32:19.559Z,13.94
2023-09-29T00:35:00.163Z,13.94
2023-09-29T00:37:32.137Z,13.94
2023-09-29T00:40:17.342Z,13.93
2023-09-29T00:42:46.547Z,13.90
2023-09-29T00:45:43.049Z,13.86
2023-09-29T00:48:12.150Z,13.84
2023-09-29T00:50:43.789Z,13.80
2023-09-29T00:53:15.933Z,13.75
2023-09-29T00:55:49.667Z,13.71
2023-09-29T00:58:20.711Z,13.67
2023-09-29T01:00:53.855Z,13.62
2023-09-29T01:03:23.421Z,13.60
2023-09-29T01:05:57.198Z,13.64
2023-09-29T01:08:27.998Z,13.68
2023-09-29T01:11:07.120Z,13.68
2023-09-29T01:13:42.939Z,13.68
2023-09-29T01:16:12.195Z,13.67
2023-09-29T01:18:41.738Z,13.67
2023-09-29T01:21:15.160Z,13.68
2023-09-29T01:23:49.781Z,13.67
2023-09-29T01:26:20.023Z,13.70
2023-09-29T01:28:51.766Z,13.71
2023-09-29T01:31:23.007Z,13.71
2023-09-29T01:34:01.015Z,13.74
2023-09-29T01:36:30.852Z,13.77
2023-09-29T01:39:18.588Z,13.79
2023-09-29T01:41:54.432Z,13.80
2023-09-29T01:44:35.598Z,13.83
2023-09-29T01:47:06.624Z,13.84
2023-09-29T01:49:44.996Z,13.87
2023-09-29T01:52:16.552Z,13.90
2023-09-29T01:54:47.292Z,13.91
2023-09-29T01:57:20.019Z,13.91
2023-09-29T01:59:50.692Z,13.89
2023-09-29T02:02:22.057Z,13.88
2023-09-29T02:04:54.327Z,13.85
2023-09-29T02:07:26.301Z,13.84
2023-09-29T02:10:05.101Z,13.82
2023-09-29T02:12:40.572Z,13.79
2023-09-29T02:15:11.487Z,13.78
2023-09-29T02:17:43.570Z,13.77
2023-09-29T02:20:33.984Z,13.73
2023-09-29T02:23:09.748Z,13.73
2023-09-29T02:25:42.620Z,13.74
2023-09-29T02:28:34.083Z,13.75
2023-09-29T02:31:07.219Z,13.71
2023-09-29T02:33:45.786Z,13.69
2023-09-29T02:36:18.978Z,13.64
2023-09-29T02:38:49.968Z,13.58
2023-09-29T02:41:22.483Z,13.55
2023-09-29T02:43:53.931Z,13.52
2023-09-29T02:46:27.032Z,13.51
2023-09-29T02:48:56.635Z,13.50
2023-09-29T02:54:44.702Z,13.46
2023-09-29T02:57:15.926Z,13.41
2023-09-29T02:59:47.879Z,13.37
2023-09-29T03:02:15.105Z,13.34
2023-09-29T03:04:45.114Z,13.31
2023-09-29T03:07:16.342Z,13.29
2023-09-29T03:09:43.525Z,13.25
2023-09-29T03:12:17.974Z,13.20
2023-09-29T03:14:47.230Z,13.19
2023-09-29T03:17:38.436Z,13.19
2023-09-29T03:20:12.657Z,13.19
2023-09-29T03:23:00.697Z,13.18
2023-09-29T03:25:29.773Z,13.13
2023-09-29T03:28:03.116Z,13.07
2023-09-29T03:30:45.215Z,13.04
2023-09-29T03:33:12.471Z,13.02
2023-09-29T03:39:12.525Z,12.95
2023-09-29T03:42:05.186Z,12.90
2023-09-29T03:44:35.044Z,12.79
2023-09-29T03:47:28.040Z,12.72
2023-09-29T03:49:58.180Z,12.68
2023-09-29T03:52:27.883Z,12.66
2023-09-29T03:55:16.427Z,12.61
2023-09-29T03:57:50.676Z,12.52
2023-09-29T04:00:21.091Z,12.49
2023-09-29T04:02:53.354Z,12.47
2023-09-29T04:05:21.927Z,12.45
2023-09-29T04:07:53.657Z,12.44
2023-09-29T04:10:45.479Z,12.36
2023-09-29T04:13:15.958Z,12.32
2023-09-29T04:15:53.960Z,12.34
2023-09-29T04:18:56.483Z,12.35
2023-09-29T04:21:24.939Z,12.35
2023-09-29T04:23:52.835Z,12.36
2023-09-29T04:26:25.959Z,12.34
2023-09-29T04:29:22.760Z,12.32
2023-09-29T04:31:51.951Z,12.25
2023-09-29T04:39:22.672Z,12.18
2023-09-29T04:41:50.488Z,12.16
2023-09-29T04:44:17.747Z,12.14
2023-09-29T04:47:06.139Z,12.13
2023-09-29T04:49:34.966Z,12.15
2023-09-29T04:52:02.861Z,12.17
2023-09-29T04:54:30.128Z,12.16
2023-09-29T04:57:01.880Z,12.16
2023-09-29T04:59:31.603Z,12.16
2023-09-29T05:02:02.479Z,12.15
2023-09-29T05:04:33.760Z,12.15
2023-09-29T05:07:10.705Z,12.14
2023-09-29T05:09:40.255Z,12.12
2023-09-29T05:12:12.522Z,12.11
2023-09-29T05:14:40.252Z,12.03
2023-09-29T05:17:07.912Z,12.01
2023-09-29T05:19:39.945Z,12.04
2023-09-29T05:22:12.425Z,12.06
2023-09-29T05:24:40.859Z,12.09
2023-09-29T05:27:14.995Z,12.15
2023-09-29T05:29:42.974Z,12.19
2023-09-29T05:32:12.512Z,12.26
2023-09-29T05:34:41.822Z,12.33
2023-09-29T05:37:12.221Z,12.41
2023-09-29T05:39:42.417Z,12.50
2023-09-29T05:42:14.922Z,12.59
2023-09-29T05:44:46.608Z,12.67
2023-09-29T05:47:14.069Z,12.78
2023-09-29T05:53:10.362Z,12.97
2023-09-29T05:55:50.353Z,13.07
2023-09-29T05:58:19.368Z,13.18
2023-09-29T06:00:46.931Z,13.28
2023-09-29T06:03:40.046Z,13.41
2023-09-29T06:06:11.300Z,13.53
2023-09-29T06:08:55.347Z,13.66
2023-09-29T06:11:57.988Z,13.79
2023-09-29T06:14:30.195Z,13.87
2023-09-29T06:17:00.360Z,13.97
2023-09-29T06:19:34.823Z,14.03
2023-09-29T06:22:02.537Z,14.06
2023-09-29T06:24:32.550Z,14.09
2023-09-29T06:27:00.624Z,14.14
2023-09-29T06:29:30.051Z,14.20
2023-09-29T06:31:59.871Z,14.27
2023-09-29T06:34:31.212Z,14.37
2023-09-29T06:37:00.187Z,14.47
2023-09-29T06:39:27.956Z,14.58
2023-09-29T06:41:55.212Z,14.67
2023-09-29T06:44:23.105Z,14.76
2023-09-29T06:46:50.363Z,14.85
2023-09-29T06:49:18.006Z,14.98
2023-09-29T06:51:45.714Z,15.11
2023-09-29T06:54:13.136Z,15.24
2023-09-29T06:56:40.670Z,15.35
2023-09-29T06:59:10.040Z,15.48
2023-09-29T07:01:37.960Z,15.60
2023-09-29T07:04:08.667Z,15.73
2023-09-29T07:06:38.148Z,15.86
2023-09-29T07:09:05.618Z,15.98
2023-09-29T07:11:32.954Z,16.09
2023-09-29T07:14:00.182Z,16.19
2023-09-29T07:16:27.424Z,16.29
2023-09-29T07:18:55.143Z,16.38
2023-09-29T07:21:22.628Z,16.48
2023-09-29T07:23:50.976Z,16.59
2023-09-29T07:26:18.187Z,16.67
2023-09-29T07:28:45.446Z,16.78
2023-09-29T07:31:12.889Z,16.89
2023-09-29T07:33:40.283Z,16.98
2023-09-29T07:36:07.648Z,17.07
2023-09-29T07:38:34.957Z,17.17
2023-09-29T07:41:06.397Z,17.31
2023-09-29T07:43:33.714Z,17.44
2023-09-29T07:46:00.987Z,17.55
2023-09-29T07:48:29.601Z,17.65
2023-09-29T07:50:56.995Z,17.74
2023-09-29T07:53:24.228Z,17.86
2023-09-29T07:55:53.744Z,17.95
2023-09-29T07:58:20.944Z,18.06
2023-09-29T08:00:48.170Z,18.16
2023-09-29T08:03:15.643Z,18.30
2023-09-29T08:05:42.946Z,18.41
2023-09-29T08:08:10.167Z,18.53
2023-09-29T08:10:37.435Z,18.62
2023-09-29T08:13:04.994Z,18.73
2023-09-29T08:15:32.210Z,18.84
2023-09-29T08:17:59.690Z,18.95
2023-09-29T08:20:27.007Z,19.05
2023-09-29T08:22:54.168Z,19.16
2023-09-29T08:25:21.648Z,19.27
2023-09-29T08:27:49.039Z,19.35
2023-09-29T08:30:16.548Z,19.44
2023-09-29T08:32:45.402Z,19.54
2023-09-29T08:35:16.807Z,19.64
2023-09-29T08:37:44.567Z,19.72
2023-09-29T08:40:13.861Z,19.81
2023-09-29T08:42:42.966Z,19.91
2023-09-29T08:45:11.578Z,20.02
2023-09-29T08:47:39.786Z,20.11
2023-09-29T08:50:08.486Z,20.20
2023-09-29T08:52:35.818Z,20.28
2023-09-29T08:55:06.200Z,20.38
2023-09-29T08:57:33.468Z,20.48
2023-09-29T09:00:01.988Z,20.61
2023-09-29T09:02:29.535Z,20.71
2023-09-29T09:04:58.530Z,20.80
2023-09-29T09:07:25.932Z,20.88
2023-09-29T09:09:56.799Z,20.99
2023-09-29T09:12:36.978Z,21.09
2023-09-29T09:15:05.998Z,21.23
2023-09-29T09:17:35.857Z,21.35
2023-09-29T09:20:03.248Z,21.48
2023-09-29T09:22:45.901Z,21.61
2023-09-29T09:25:16.706Z,21.74
2023-09-29T09:27:45.411Z,21.85
2023-09-29T09:30:24.865Z,21.95
2023-09-29T09:32:52.929Z,22.03
2023-09-29T09:35:27.571Z,22.06
2023-09-29T09:37:55.772Z,22.10
2023-09-29T09:40:25.955Z,22.14
2023-09-29T09:42:56.984Z,22.19
2023-09-29T09:45:26.643Z,22.28
2023-09-29T09:48:03.260Z,22.34
2023-09-29T09:50:32.258Z,22.44
2023-09-29T09:52:59.723Z,22.55
2023-09-29T09:55:43.709Z,22.64
2023-09-29T09:58:14.452Z,22.74
2023-09-29T10:00:43.320Z,22.82
2023-09-29T10:03:13.608Z,22.90
2023-09-29T10:05:43.115Z,22.99
2023-09-29T10:08:12.325Z,23.09
2023-09-29T10:10:40.630Z,23.20
2023-09-29T10:13:16.852Z,23.27
2023-09-29T10:15:44.998Z,23.35
2023-09-29T10:18:19.768Z,23.44
2023-09-29T10:21:02.989Z,23.57
2023-09-29T10:23:30.420Z,23.67
2023-09-29T10:26:01.909Z,23.74
2023-09-29T10:28:32.979Z,23.83
2023-09-29T10:31:15.394Z,23.91
2023-09-29T10:33:55.500Z,24.01
2023-09-29T10:36:25.067Z,24.08
2023-09-29T10:38:53.390Z,24.12
2023-09-29T10:41:34.105Z,24.18
2023-09-29T10:44:02.610Z,24.23
2023-09-29T10:46:30.639Z,24.28
2023-09-29T10:48:57.935Z,24.36
2023-09-29T10:51:29.942Z,24.44
2023-09-29T10:54:01.303Z,24.56
2023-09-29T10:56:28.898Z,24.68
2023-09-29T10:58:56.478Z,24.78
2023-09-29T11:01:33.099Z,24.86
2023-09-29T11:04:02.538Z,24.93
2023-09-29T11:06:29.967Z,24.96
2023-09-29T11:09:00.070Z,25.01
2023-09-29T11:11:28.269Z,25.08
2023-09-29T11:13:59.366Z,25.14
2023-09-29T11:16:28.874Z,25.21
2023-09-29T11:18:58.993Z,25.27
2023-09-29T11:21:36.179Z,25.34
2023-09-29T11:24:10.480Z,25.40
2023-09-29T11:26:44.916Z,25.46
2023-09-29T11:29:25.996Z,25.51
2023-09-29T11:31:55.113Z,25.53
2023-09-29T11:34:23.038Z,25.52
2023-09-29T11:36:50.668Z,25.54
2023-09-29T11:39:21.094Z,25.59
2023-09-29T11:41:48.512Z,25.65
2023-09-29T11:44:18.889Z,25.70
2023-09-29T11:46:46.433Z,25.72
2023-09-29T11:49:15.450Z,25.76
2023-09-29T11:51:42.684Z,25.83
2023-09-29T11:54:09.970Z,25.88
2023-09-29T11:56:37.186Z,25.88
2023-09-29T11:59:04.659Z,25.93
2023-09-29T12:01:32.203Z,25.97
2023-09-29T12:03:59.893Z,26.02
2023-09-29T12:06:28.717Z,26.09
2023-09-29T12:08:57.044Z,26.15
2023-09-29T12:11:24.300Z,26.18
2023-09-29T12:13:51.525Z,26.20
2023-09-29T12:16:19.006Z,26.19
2023-09-29T12:18:46.769Z,26.15
2023-09-29T12:21:14.231Z,26.11
2023-09-29T12:23:42.075Z,26.11
2023-09-29T12:26:10.415Z,26.14
2023-09-29T12:28:38.166Z,26.15
2023-09-29T12:31:20.228Z,26.15
2023-09-29T12:33:47.572Z,26.14
2023-09-29T12:36:16.171Z,26.13
2023-09-29T12:38:45.983Z,26.14
2023-09-29T12:41:14.905Z,26.12
2023-09-29T12:43:42.973Z,26.12
2023-09-29T12:46:10.146Z,26.15
2023-09-29T12:48:37.470Z,26.17
2023-09-29T12:51:04.704Z,26.19
2023-09-29T12:53:32.258Z,26.23
2023-09-29T12:55:59.657Z,26.26
2023-09-29T12:58:26.894Z,26.29
2023-09-29T13:00:55.874Z,26.34
2023-09-29T13:03:23.132Z,26.37
2023-09-29T13:05:50.507Z,26.39
2023-09-29T13:08:17.730Z,26.41
2023-09-29T13:10:47.894Z,26.41
2023-09-29T13:13:15.109Z,26.42
2023-09-29T13:15:43.070Z,26.42
2023-09-29T13:18:10.389Z,26.39
2023-09-29T13:20:40.029Z,26.39
2023-09-29T13:23:08.411Z,26.35
2023-09-29T13:25:35.575Z,26.32
2023-09-29T13:28:03.905Z,26.30
2023-09-29T13:30:43.466Z,26.29
2023-09-29T13:33:20.138Z,26.27
2023-09-29T13:35:47.468Z,26.26
2023-09-29T13:38:14.952Z,26.24
2023-09-29T13:40:42.662Z,26.24
2023-09-29T13:43:10.904Z,26.22
2023-09-29T13:45:38.213Z,26.20
2023-09-29T13:48:05.812Z,26.19
2023-09-29T13:50:33.166Z,26.16
2023-09-29T13:53:00.325Z,26.14
2023-09-29T13:55:27.441Z,26.13
2023-09-29T13:57:54.609Z,26.09
2023-09-29T14:00:23.547Z,26.07
2023-09-29T14:02:51.558Z,26.05
2023-09-29T14:05:19.000Z,26.04
2023-09-29T14:07:46.144Z,26.00
2023-09-29T14:10:13.347Z,25.94
2023-09-29T14:12:40.796Z,25.88
2023-09-29T14:15:10.283Z,25.84
2023-09-29T14:17:37.562Z,25.79
2023-09-29T14:20:07.420Z,25.75
2023-09-29T14:22:34.510Z,25.70
2023-09-29T14:25:02.585Z,25.66
2023-09-29T14:27:29.766Z,25.64
2023-09-29T14:29:57.086Z,25.60
2023-09-29T14:32:27.295Z,25.57
2023-09-29T14:34:55.452Z,25.55
2023-09-29T14:37:22.685Z,25.52
2023-09-29T14:39:49.872Z,25.48
2023-09-29T14:42:17.076Z,25.46
2023-09-29T14:44:44.203Z,25.42
2023-09-29T14:47:13.620Z,25.34
2023-09-29T14:49:40.992Z,25.28
2023-09-29T14:52:08.359Z,25.26
2023-09-29T14:54:35.508Z,25.22
2023-09-29T14:57:03.038Z,25.16
2023-09-29T14:59:32.941Z,25.08
2023-09-29T15:02:00.149Z,25.03
2023-09-29T15:04:36.038Z,24.96
2023-09-29T15:07:17.001Z,24.87
2023-09-29T15:09:44.840Z,24.81
2023-09-29T15:12:12.278Z,24.76
2023-09-29T15:14:39.475Z,24.68
2023-09-29T15:17:07.040Z,24.60
2023-09-29T15:19:44.298Z,24.51
2023-09-29T15:22:11.818Z,24.46
2023-09-29T15:24:39.264Z,24.43
2023-09-29T15:27:07.818Z,24.42
2023-09-29T15:29:36.013Z,24.39
2023-09-29T15:32:03.146Z,24.34
2023-09-29T15:34:31.579Z,24.28
2023-09-29T15:36:58.874Z,24.24
2023-09-29T15:39:26.620Z,24.16
2023-09-29T15:41:54.085Z,24.05
2023-09-29T15:44:21.262Z,23.95
2023-09-29T15:46:48.473Z,23.87
2023-09-29T15:49:15.693Z,23.76
2023-09-29T15:51:42.922Z,23.68
2023-09-29T15:54:10.294Z,23.59
2023-09-29T15:56:37.566Z,23.53
2023-09-29T15:59:05.023Z,23.43
2023-09-29T16:01:33.918Z,23.34
2023-09-29T16:04:02.311Z,23.25
2023-09-29T16:06:30.839Z,23.13
2023-09-29T16:08:58.074Z,23.04
2023-09-29T16:11:26.382Z,22.95
2023-09-29T16:13:53.653Z,22.84
2023-09-29T16:16:20.957Z,22.71
2023-09-29T16:18:48.230Z,22.59
2023-09-29T16:21:19.884Z,22.45
2023-09-29T16:23:48.029Z,22.28
2023-09-29T16:26:17.471Z,22.14
2023-09-29T16:28:45.422Z,22.03
2023-09-29T16:31:14.127Z,21.91
2023-09-29T16:33:42.263Z,21.80
2023-09-29T16:36:09.575Z,21.69
2023-09-29T16:38:38.378Z,21.58
2023-09-29T16:41:05.562Z,21.43
2023-09-29T16:43:32.825Z,21.30
2023-09-29T16:46:00.077Z,21.21
2023-09-29T16:48:27.801Z,21.11
2023-09-29T16:50:56.203Z,21.00
2023-09-29T16:53:28.983Z,20.87
2023-09-29T16:55:57.064Z,20.74
2023-09-29T16:58:24.205Z,20.65
2023-09-29T17:00:52.434Z,20.55
2023-09-29T17:03:20.157Z,20.42
2023-09-29T17:05:47.451Z,20.29
2023-09-29T17:08:14.670Z,20.18
2023-09-29T17:10:42.866Z,20.08
2023-09-29T17:13:09.968Z,20.02
2023-09-29T17:15:40.806Z,19.95
2023-09-29T17:18:08.454Z,19.85
2023-09-29T17:20:39.010Z,19.78
2023-09-29T17:23:06.450Z,19.71
2023-09-29T17:25:33.561Z,19.62
2023-09-29T17:28:01.387Z,19.49
2023-09-29T17:30:28.673Z,19.32
2023-09-29T17:32:56.127Z,19.19
2023-09-29T17:35:23.347Z,19.09
2023-09-29T17:37:50.533Z,19.04
2023-09-29T17:40:19.884Z,18.99
2023-09-29T17:42:47.733Z,18.95
2023-09-29T17:45:15.201Z,18.90
2023-09-29T17:47:42.515Z,18.85
2023-09-29T17:50:10.740Z,18.80
2023-09-29T17:52:38.895Z,18.73
2023-09-29T17:55:07.710Z,18.67
2023-09-29T17:57:35.158Z,18.62
2023-09-29T18:00:05.052Z,18.59
2023-09-29T18:02:35.017Z,18.55
2023-09-29T18:05:02.173Z,18.49
2023-09-29T18:07:29.368Z,18.41
2023-09-29T18:09:56.588Z,18.36
2023-09-29T18:12:23.831Z,18.31
2023-09-29T18:14:52.733Z,18.27
2023-09-29T18:17:20.015Z,18.21
2023-09-29T18:19:47.613Z,18.12
2023-09-29T18:22:14.783Z,18.05
2023-09-29T18:24:43.354Z,17.99
2023-09-29T18:27:10.632Z,17.95
2023-09-29T18:29:37.790Z,17.91
2023-09-29T18:32:05.519Z,17.88
2023-09-29T18:34:32.693Z,17.86
2023-09-29T18:36:59.910Z,17.80
2023-09-29T18:39:27.877Z,17.76
2023-09-29T18:41:55.052Z,17.72
2023-09-29T18:44:22.585Z,17.68
2023-09-29T18:46:49.873Z,17.65
2023-09-29T18:49:17.700Z,17.61
2023-09-29T18:51:44.923Z,17.56
2023-09-29T18:54:12.193Z,17.53
2023-09-29T18:56:42.435Z,17.48
2023-09-29T18:59:10.449Z,17.45
2023-09-29T19:01:38.039Z,17.42
2023-09-29T19:04:05.900Z,17.37
2023-09-29T19:06:33.100Z,17.32
2023-09-29T19:09:00.751Z,17.27
2023-09-29T19:11:28.206Z,17.23
2023-09-29T19:13:56.025Z,17.17
2023-09-29T19:16:23.368Z,17.12
2023-09-29T19:18:52.739Z,17.09
2023-09-29T19:21:24.342Z,17.04
2023-09-29T19:23:55.860Z,17.00
2023-09-29T19:26:25.881Z,16.95
2023-09-29T19:28:53.879Z,16.87
2023-09-29T19:31:27.149Z,16.80
2023-09-29T19:33:59.161Z,16.73
2023-09-29T19:36:29.583Z,16.67
2023-09-29T19:38:57.371Z,16.65
2023-09-29T19:41:25.072Z,16.63
2023-09-29T19:43:52.646Z,16.61
2023-09-29T19:46:23.495Z,16.59
2023-09-29T19:48:52.830Z,16.52
2023-09-29T19:51:20.266Z,16.45
2023-09-29T19:53:47.493Z,16.38
2023-09-29T19:56:21.266Z,16.35
2023-09-29T19:58:49.239Z,16.31
2023-09-29T20:01:18.283Z,16.24
2023-09-29T20:03:46.349Z,16.20
2023-09-29T20:06:13.667Z,16.16
2023-09-29T20:08:43.688Z,16.15
2023-09-29T20:11:12.025Z,16.16
2023-09-29T20:13:39.464Z,16.15
2023-09-29T20:16:07.193Z,16.14
2023-09-29T20:18:34.604Z,16.12
2023-09-29T20:21:03.669Z,16.06
2023-09-29T20:23:31.045Z,16.01
2023-09-29T20:25:59.757Z,15.99
2023-09-29T20:28:27.742Z,15.96
2023-09-29T20:30:55.262Z,15.92
2023-09-29T20:33:25.321Z,15.87
2023-09-29T20:35:52.526Z,15.78
2023-09-29T20:38:19.930Z,15.74
2023-09-29T20:40:48.373Z,15.70
2023-09-29T20:43:15.719Z,15.68
2023-09-29T20:45:49.426Z,15.67
2023-09-29T20:48:17.442Z,15.64
2023-09-29T20:50:45.137Z,15.62
2023-09-29T20:53:17.000Z,15.61
2023-09-29T20:55:44.468Z,15.58
2023-09-29T20:58:12.107Z,15.55
2023-09-29T21:00:40.974Z,15.53
2023-09-29T21:03:10.469Z,15.52
2023-09-29T21:05:37.646Z,15.51
2023-09-29T21:08:05.290Z,15.50
2023-09-29T21:10:32.493Z,15.48
2023-09-29T21:13:01.422Z,15.45
2023-09-29T21:15:28.774Z,15.38
2023-09-29T21:17:58.785Z,15.34
2023-09-29T21:20:26.047Z,15.32
2023-09-29T21:22:54.262Z,15.25
2023-09-29T21:25:22.878Z,15.15
2023-09-29T21:27:50.469Z,15.05
2023-09-29T21:30:17.986Z,14.97
2023-09-29T21:32:45.270Z,14.97
2023-09-29T21:35:13.444Z,14.97
2023-09-29T21:37:40.708Z,14.97
2023-09-29T21:40:08.818Z,14.95
2023-09-29T21:42:36.028Z,14.92
2023-09-29T21:45:04.143Z,14.88
2023-09-29T21:47:31.456Z,14.84
2023-09-29T21:49:58.732Z,14.83
2023-09-29T21:52:25.960Z,14.81
2023-09-29T21:54:53.143Z,14.79
2023-09-29T21:57:20.494Z,14.77
2023-09-29T21:59:48.015Z,14.74
2023-09-29T22:02:15.701Z,14.73
2023-09-29T22:04:42.999Z,14.71
2023-09-29T22:07:10.240Z,14.69
2023-09-29T22:09:37.455Z,14.67
2023-09-29T22:12:05.409Z,14.59
2023-09-29T22:14:32.720Z,14.43
2023-09-29T22:17:00.910Z,14.28
2023-09-29T22:19:28.138Z,14.18
2023-09-29T22:21:55.404Z,14.17
2023-09-29T22:24:23.152Z,14.18
2023-09-29T22:26:51.829Z,14.17
2023-09-29T22:29:19.151Z,14.08
2023-09-29T22:31:49.265Z,14.03
2023-09-29T22:34:17.661Z,14.04
2023-09-29T22:36:48.043Z,14.05
2023-09-29T22:39:15.706Z,14.06
2023-09-29T22:41:43.260Z,14.08
2023-09-29T22:44:10.412Z,14.09
2023-09-29T22:46:37.603Z,14.12
2023-09-29T22:49:04.992Z,14.14
2023-09-29T22:51:32.215Z,14.16
2023-09-29T22:53:59.464Z,14.16
2023-09-29T22:56:26.725Z,14.16
2023-09-29T22:58:54.312Z,14.15
2023-09-29T23:01:21.528Z,14.12
2023-09-29T23:03:49.846Z,14.10
2023-09-29T23:06:17.777Z,14.07
2023-09-29T23:08:46.727Z,14.04
2023-09-29T23:11:13.936Z,13.99
2023-09-29T23:13:42.966Z,13.95
2023-09-29T23:16:10.733Z,13.92
2023-09-29T23:18:37.968Z,13.90
2023-09-29T23:21:06.055Z,13.89
2023-09-29T23:23:33.341Z,13.87
2023-09-29T23:26:00.485Z,13.83
2023-09-29T23:28:27.867Z,13.75
2023-09-29T23:30:59.631Z,13.70
2023-09-29T23:33:30.691Z,13.69
2023-09-29T23:35:57.959Z,13.66
2023-09-29T23:38:25.301Z,13.63
2023-09-29T23:40:52.482Z,13.59
2023-09-29T23:43:19.681Z,13.58
2023-09-29T23:45:48.447Z,13.57
2023-09-29T23:48:17.147Z,13.59
2023-09-29T23:50:44.383Z,13.58
2023-09-29T23:53:11.716Z,13.53
2023-09-29T23:55:38.897Z,13.52
2023-09-29T23:58:06.107Z,13.53
